sensor_id;sensor_type;location;lat;lon;timestamp;temperature;humidity
73955;DHT22;62306;52.516;13.290;2023-02-28T00:01:08;2.70;83.70
73955;DHT22;62306;52.516;13.290;2023-02-28T00:03:35;2.70;84.00
73955;DHT22;62306;52.516;13.290;2023-02-28T00:06:03;2.70;84.60
73955;DHT22;62306;52.516;13.290;2023-02-28T00:08:31;2.70;84.80
73955;DHT22;62306;52.516;13.290;2023-02-28T00:11:01;2.70;83.90
73955;DHT22;62306;52.516;13.290;2023-02-28T00:13:29;2.80;84.00
73955;DHT22;62306;52.516;13.290;2023-02-28T00:16:00;2.80;83.20
73955;DHT22;62306;52.516;13.290;2023-02-28T00:18:27;2.80;83.10
73955;DHT22;62306;52.516;13.290;2023-02-28T00:20:53;2.90;83.70
73955;DHT22;62306;52.516;13.290;2023-02-28T00:23:20;2.80;83.60
73955;DHT22;62306;52.516;13.290;2023-02-28T00:25:49;2.80;83.30
73955;DHT22;62306;52.516;13.290;2023-02-28T00:28:16;2.90;82.70
73955;DHT22;62306;52.516;13.290;2023-02-28T00:30:44;2.90;82.70
73955;DHT22;62306;52.516;13.290;2023-02-28T00:33:11;2.90;82.60
73955;DHT22;62306;52.516;13.290;2023-02-28T00:35:38;2.90;82.70
73955;DHT22;62306;52.516;13.290;2023-02-28T00:38:05;3.00;82.30
73955;DHT22;62306;52.516;13.290;2023-02-28T00:40:32;2.90;81.90
73955;DHT22;62306;52.516;13.290;2023-02-28T00:43:00;2.90;81.50
73955;DHT22;62306;52.516;13.290;2023-02-28T00:45:28;3.00;81.60
73955;DHT22;62306;52.516;13.290;2023-02-28T00:47:55;3.00;81.60
73955;DHT22;62306;52.516;13.290;2023-02-28T00:50:22;3.10;81.70
73955;DHT22;62306;52.516;13.290;2023-02-28T00:52:49;3.00;81.90
73955;DHT22;62306;52.516;13.290;2023-02-28T00:55:16;3.00;81.90
73955;DHT22;62306;52.516;13.290;2023-02-28T00:57:44;3.00;82.00
73955;DHT22;62306;52.516;13.290;2023-02-28T01:00:13;3.00;81.80
73955;DHT22;62306;52.516;13.290;2023-02-28T01:02:40;3.00;81.70
73955;DHT22;62306;52.516;13.290;2023-02-28T01:05:07;3.00;81.50
73955;DHT22;62306;52.516;13.290;2023-02-28T01:07:34;3.00;82.00
73955;DHT22;62306;52.516;13.290;2023-02-28T01:10:01;3.00;81.80
73955;DHT22;62306;52.516;13.290;2023-02-28T01:12:28;3.00;81.20
73955;DHT22;62306;52.516;13.290;2023-02-28T01:14:55;3.00;81.10
73955;DHT22;62306;52.516;13.290;2023-02-28T01:17:23;2.90;81.00
73955;DHT22;62306;52.516;13.290;2023-02-28T01:19:53;2.90;81.20
73955;DHT22;62306;52.516;13.290;2023-02-28T01:22:20;3.00;80.20
73955;DHT22;62306;52.516;13.290;2023-02-28T01:24:47;3.00;80.30
73955;DHT22;62306;52.516;13.290;2023-02-28T01:27:14;2.90;80.50
73955;DHT22;62306;52.516;13.290;2023-02-28T01:29:41;3.00;79.80
73955;DHT22;62306;52.516;13.290;2023-02-28T01:32:08;3.00;80.00
73955;DHT22;62306;52.516;13.290;2023-02-28T01:34:36;2.90;80.10
73955;DHT22;62306;52.516;13.290;2023-02-28T01:37:03;2.90;80.20
73955;DHT22;62306;52.516;13.290;2023-02-28T01:39:30;2.80;80.80
73955;DHT22;62306;52.516;13.290;2023-02-28T01:41:57;2.80;81.00
73955;DHT22;62306;52.516;13.290;2023-02-28T01:44:58;2.80;81.00
73955;DHT22;62306;52.516;13.290;2023-02-28T01:47:27;2.80;81.10
73955;DHT22;62306;52.516;13.290;2023-02-28T01:49:57;2.70;81.10
73955;DHT22;62306;52.516;13.290;2023-02-28T01:52:25;2.70;81.80
73955;DHT22;62306;52.516;13.290;2023-02-28T01:54:55;2.70;82.00
73955;DHT22;62306;52.516;13.290;2023-02-28T01:57:25;2.70;81.20
73955;DHT22;62306;52.516;13.290;2023-02-28T01:59:58;2.70;81.30
73955;DHT22;62306;52.516;13.290;2023-02-28T02:02:26;2.70;81.90
73955;DHT22;62306;52.516;13.290;2023-02-28T02:04:57;2.70;81.60
73955;DHT22;62306;52.516;13.290;2023-02-28T02:07:26;2.70;81.50
73955;DHT22;62306;52.516;13.290;2023-02-28T02:10:01;2.70;81.40
73955;DHT22;62306;52.516;13.290;2023-02-28T02:12:46;2.70;81.70
73955;DHT22;62306;52.516;13.290;2023-02-28T02:15:24;2.60;82.00
73955;DHT22;62306;52.516;13.290;2023-02-28T02:17:57;2.60;82.50
73955;DHT22;62306;52.516;13.290;2023-02-28T02:20:50;2.60;82.40
73955;DHT22;62306;52.516;13.290;2023-02-28T02:23:39;2.50;82.50
73955;DHT22;62306;52.516;13.290;2023-02-28T02:29:31;2.50;82.70
73955;DHT22;62306;52.516;13.290;2023-02-28T02:32:35;2.40;82.80
73955;DHT22;62306;52.516;13.290;2023-02-28T02:35:13;2.30;83.30
73955;DHT22;62306;52.516;13.290;2023-02-28T02:37:45;2.30;83.30
73955;DHT22;62306;52.516;13.290;2023-02-28T02:40:17;2.20;84.50
73955;DHT22;62306;52.516;13.290;2023-02-28T02:42:49;2.10;84.90
73955;DHT22;62306;52.516;13.290;2023-02-28T02:45:22;2.00;85.60
73955;DHT22;62306;52.516;13.290;2023-02-28T02:47:51;1.90;86.30
73955;DHT22;62306;52.516;13.290;2023-02-28T02:50:23;1.80;86.20
73955;DHT22;62306;52.516;13.290;2023-02-28T02:52:55;1.80;86.20
73955;DHT22;62306;52.516;13.290;2023-02-28T02:55:23;1.70;86.60
73955;DHT22;62306;52.516;13.290;2023-02-28T02:57:53;1.70;87.30
73955;DHT22;62306;52.516;13.290;2023-02-28T03:00:24;1.60;88.10
73955;DHT22;62306;52.516;13.290;2023-02-28T03:02:54;1.50;88.40
73955;DHT22;62306;52.516;13.290;2023-02-28T03:05:26;1.60;88.40
73955;DHT22;62306;52.516;13.290;2023-02-28T03:07:53;1.60;88.00
73955;DHT22;62306;52.516;13.290;2023-02-28T03:10:30;1.60;88.70
73955;DHT22;62306;52.516;13.290;2023-02-28T03:15:58;1.60;88.70
73955;DHT22;62306;52.516;13.290;2023-02-28T03:18:33;1.60;88.60
73955;DHT22;62306;52.516;13.290;2023-02-28T03:21:12;1.60;89.20
73955;DHT22;62306;52.516;13.290;2023-02-28T03:23:45;1.60;89.50
73955;DHT22;62306;52.516;13.290;2023-02-28T03:26:19;1.50;90.00
73955;DHT22;62306;52.516;13.290;2023-02-28T03:28:53;1.50;89.90
73955;DHT22;62306;52.516;13.290;2023-02-28T03:31:28;1.60;89.90
73955;DHT22;62306;52.516;13.290;2023-02-28T03:34:01;1.60;89.80
73955;DHT22;62306;52.516;13.290;2023-02-28T03:36:32;1.60;89.90
73955;DHT22;62306;52.516;13.290;2023-02-28T03:39:04;1.50;90.00
73955;DHT22;62306;52.516;13.290;2023-02-28T03:41:37;1.50;90.20
73955;DHT22;62306;52.516;13.290;2023-02-28T03:44:08;1.50;90.20
73955;DHT22;62306;52.516;13.290;2023-02-28T03:46:40;1.50;90.10
73955;DHT22;62306;52.516;13.290;2023-02-28T03:49:13;1.60;89.90
73955;DHT22;62306;52.516;13.290;2023-02-28T03:51:44;1.60;89.70
73955;DHT22;62306;52.516;13.290;2023-02-28T03:54:15;1.50;89.80
73955;DHT22;62306;52.516;13.290;2023-02-28T03:56:47;1.50;89.70
73955;DHT22;62306;52.516;13.290;2023-02-28T03:59:20;1.40;90.10
73955;DHT22;62306;52.516;13.290;2023-02-28T04:01:48;1.30;90.40
73955;DHT22;62306;52.516;13.290;2023-02-28T04:04:16;1.30;90.60
73955;DHT22;62306;52.516;13.290;2023-02-28T04:06:44;1.20;90.60
73955;DHT22;62306;52.516;13.290;2023-02-28T04:09:13;1.20;90.80
73955;DHT22;62306;52.516;13.290;2023-02-28T04:11:42;1.20;90.90
73955;DHT22;62306;52.516;13.290;2023-02-28T04:14:11;1.10;91.20
73955;DHT22;62306;52.516;13.290;2023-02-28T04:16:41;1.20;91.10
73955;DHT22;62306;52.516;13.290;2023-02-28T04:19:09;1.20;91.20
73955;DHT22;62306;52.516;13.290;2023-02-28T04:21:38;1.10;91.30
73955;DHT22;62306;52.516;13.290;2023-02-28T04:24:08;1.10;91.30
73955;DHT22;62306;52.516;13.290;2023-02-28T04:26:39;1.10;91.40
73955;DHT22;62306;52.516;13.290;2023-02-28T04:29:07;1.20;91.20
73955;DHT22;62306;52.516;13.290;2023-02-28T04:31:34;1.10;91.30
73955;DHT22;62306;52.516;13.290;2023-02-28T04:34:01;1.00;91.50
73955;DHT22;62306;52.516;13.290;2023-02-28T04:36:29;1.00;92.00
73955;DHT22;62306;52.516;13.290;2023-02-28T04:38:56;1.00;92.00
73955;DHT22;62306;52.516;13.290;2023-02-28T04:41:24;1.00;92.00
73955;DHT22;62306;52.516;13.290;2023-02-28T04:43:52;1.00;91.80
73955;DHT22;62306;52.516;13.290;2023-02-28T04:46:19;1.10;91.60
73955;DHT22;62306;52.516;13.290;2023-02-28T04:48:46;1.10;91.60
73955;DHT22;62306;52.516;13.290;2023-02-28T04:51:15;1.00;91.80
73955;DHT22;62306;52.516;13.290;2023-02-28T04:53:42;1.00;91.70
73955;DHT22;62306;52.516;13.290;2023-02-28T04:56:12;1.00;91.80
73955;DHT22;62306;52.516;13.290;2023-02-28T04:58:40;1.10;91.60
73955;DHT22;62306;52.516;13.290;2023-02-28T05:01:17;1.00;91.80
73955;DHT22;62306;52.516;13.290;2023-02-28T05:03:44;0.90;91.80
73955;DHT22;62306;52.516;13.290;2023-02-28T05:06:12;0.80;92.10
73955;DHT22;62306;52.516;13.290;2023-02-28T05:08:39;0.80;92.50
73955;DHT22;62306;52.516;13.290;2023-02-28T05:11:10;0.80;92.90
73955;DHT22;62306;52.516;13.290;2023-02-28T05:13:40;0.70;92.70
73955;DHT22;62306;52.516;13.290;2023-02-28T05:16:07;0.90;92.70
73955;DHT22;62306;52.516;13.290;2023-02-28T05:18:34;1.00;92.50
73955;DHT22;62306;52.516;13.290;2023-02-28T05:21:01;0.90;92.30
73955;DHT22;62306;52.516;13.290;2023-02-28T05:23:28;0.80;92.60
73955;DHT22;62306;52.516;13.290;2023-02-28T05:25:56;0.80;92.90
73955;DHT22;62306;52.516;13.290;2023-02-28T05:28:23;0.90;92.90
73955;DHT22;62306;52.516;13.290;2023-02-28T05:30:51;1.00;92.70
73955;DHT22;62306;52.516;13.290;2023-02-28T05:33:18;1.00;92.80
73955;DHT22;62306;52.516;13.290;2023-02-28T05:35:45;0.90;92.60
73955;DHT22;62306;52.516;13.290;2023-02-28T05:38:12;0.90;92.80
73955;DHT22;62306;52.516;13.290;2023-02-28T05:40:39;0.90;92.90
73955;DHT22;62306;52.516;13.290;2023-02-28T05:43:09;0.80;92.90
73955;DHT22;62306;52.516;13.290;2023-02-28T05:45:37;0.80;93.20
73955;DHT22;62306;52.516;13.290;2023-02-28T05:48:06;0.80;93.20
73955;DHT22;62306;52.516;13.290;2023-02-28T05:50:32;0.80;93.40
73955;DHT22;62306;52.516;13.290;2023-02-28T05:52:59;0.70;93.60
73955;DHT22;62306;52.516;13.290;2023-02-28T05:55:26;0.70;93.70
73955;DHT22;62306;52.516;13.290;2023-02-28T05:57:53;0.60;93.80
73955;DHT22;62306;52.516;13.290;2023-02-28T06:00:20;0.60;94.20
73955;DHT22;62306;52.516;13.290;2023-02-28T06:02:47;0.70;94.10
73955;DHT22;62306;52.516;13.290;2023-02-28T06:05:17;0.70;93.80
73955;DHT22;62306;52.516;13.290;2023-02-28T06:07:44;0.60;94.10
73955;DHT22;62306;52.516;13.290;2023-02-28T06:10:11;0.50;94.70
73955;DHT22;62306;52.516;13.290;2023-02-28T06:12:38;0.60;94.50
73955;DHT22;62306;52.516;13.290;2023-02-28T06:15:09;0.70;94.40
73955;DHT22;62306;52.516;13.290;2023-02-28T06:17:38;0.80;94.20
73955;DHT22;62306;52.516;13.290;2023-02-28T06:20:06;0.80;94.00
73955;DHT22;62306;52.516;13.290;2023-02-28T06:22:35;0.80;93.90
73955;DHT22;62306;52.516;13.290;2023-02-28T06:25:02;0.90;94.00
73955;DHT22;62306;52.516;13.290;2023-02-28T06:27:30;0.80;93.80
73955;DHT22;62306;52.516;13.290;2023-02-28T06:29:57;0.90;94.00
73955;DHT22;62306;52.516;13.290;2023-02-28T06:32:24;0.80;93.90
73955;DHT22;62306;52.516;13.290;2023-02-28T06:34:51;0.90;94.00
73955;DHT22;62306;52.516;13.290;2023-02-28T06:37:18;0.90;94.00
73955;DHT22;62306;52.516;13.290;2023-02-28T06:39:47;0.90;94.00
73955;DHT22;62306;52.516;13.290;2023-02-28T06:42:13;1.00;93.90
73955;DHT22;62306;52.516;13.290;2023-02-28T06:44:40;1.00;93.80
73955;DHT22;62306;52.516;13.290;2023-02-28T06:47:08;1.00;93.70
73955;DHT22;62306;52.516;13.290;2023-02-28T06:49:35;1.00;93.60
73955;DHT22;62306;52.516;13.290;2023-02-28T06:52:03;1.10;93.70
73955;DHT22;62306;52.516;13.290;2023-02-28T06:54:29;1.10;93.60
73955;DHT22;62306;52.516;13.290;2023-02-28T06:56:58;1.10;93.50
73955;DHT22;62306;52.516;13.290;2023-02-28T06:59:25;1.10;93.60
73955;DHT22;62306;52.516;13.290;2023-02-28T07:01:52;1.20;93.60
73955;DHT22;62306;52.516;13.290;2023-02-28T07:04:20;1.30;93.50
73955;DHT22;62306;52.516;13.290;2023-02-28T07:06:47;1.30;93.50
73955;DHT22;62306;52.516;13.290;2023-02-28T07:09:15;1.40;93.20
73955;DHT22;62306;52.516;13.290;2023-02-28T07:11:41;1.60;92.90
73955;DHT22;62306;52.516;13.290;2023-02-28T07:14:10;1.70;92.50
73955;DHT22;62306;52.516;13.290;2023-02-28T07:16:37;1.80;92.10
73955;DHT22;62306;52.516;13.290;2023-02-28T07:19:04;1.90;91.90
73955;DHT22;62306;52.516;13.290;2023-02-28T07:21:31;2.10;91.60
73955;DHT22;62306;52.516;13.290;2023-02-28T07:23:58;2.30;91.20
73955;DHT22;62306;52.516;13.290;2023-02-28T07:26:25;2.50;90.60
73955;DHT22;62306;52.516;13.290;2023-02-28T07:28:52;2.70;90.00
73955;DHT22;62306;52.516;13.290;2023-02-28T07:31:21;2.80;88.70
73955;DHT22;62306;52.516;13.290;2023-02-28T07:33:48;3.00;87.20
73955;DHT22;62306;52.516;13.290;2023-02-28T07:36:16;3.20;86.20
73955;DHT22;62306;52.516;13.290;2023-02-28T07:38:45;3.40;85.10
73955;DHT22;62306;52.516;13.290;2023-02-28T07:41:15;3.50;84.70
73955;DHT22;62306;52.516;13.290;2023-02-28T07:43:42;3.60;83.20
73955;DHT22;62306;52.516;13.290;2023-02-28T07:46:12;3.70;82.70
73955;DHT22;62306;52.516;13.290;2023-02-28T07:48:42;4.30;82.10
73955;DHT22;62306;52.516;13.290;2023-02-28T07:51:09;3.90;80.60
73955;DHT22;62306;52.516;13.290;2023-02-28T07:53:36;4.00;80.90
73955;DHT22;62306;52.516;13.290;2023-02-28T07:56:03;4.20;79.30
73955;DHT22;62306;52.516;13.290;2023-02-28T07:58:31;4.30;78.60
73955;DHT22;62306;52.516;13.290;2023-02-28T08:01:04;4.40;78.20
73955;DHT22;62306;52.516;13.290;2023-02-28T08:03:32;4.60;76.60
73955;DHT22;62306;52.516;13.290;2023-02-28T08:06:00;4.70;76.30
73955;DHT22;62306;52.516;13.290;2023-02-28T08:08:28;4.80;74.90
73955;DHT22;62306;52.516;13.290;2023-02-28T08:10:58;4.90;73.80
73955;DHT22;62306;52.516;13.290;2023-02-28T08:13:26;5.00;71.70
73955;DHT22;62306;52.516;13.290;2023-02-28T08:15:53;5.00;69.80
73955;DHT22;62306;52.516;13.290;2023-02-28T08:18:20;4.90;60.00
73955;DHT22;62306;52.516;13.290;2023-02-28T08:20:47;5.00;60.40
73955;DHT22;62306;52.516;13.290;2023-02-28T08:23:15;5.20;59.30
73955;DHT22;62306;52.516;13.290;2023-02-28T08:25:42;5.20;56.70
73955;DHT22;62306;52.516;13.290;2023-02-28T08:28:09;5.20;55.40
73955;DHT22;62306;52.516;13.290;2023-02-28T08:30:36;5.10;50.80
73955;DHT22;62306;52.516;13.290;2023-02-28T08:33:06;5.30;53.30
73955;DHT22;62306;52.516;13.290;2023-02-28T08:35:35;5.40;49.40
73955;DHT22;62306;52.516;13.290;2023-02-28T08:38:02;5.60;50.40
73955;DHT22;62306;52.516;13.290;2023-02-28T08:40:30;5.80;48.10
73955;DHT22;62306;52.516;13.290;2023-02-28T08:42:57;6.00;47.60
73955;DHT22;62306;52.516;13.290;2023-02-28T08:45:25;6.10;47.00
73955;DHT22;62306;52.516;13.290;2023-02-28T08:47:53;6.00;46.70
73955;DHT22;62306;52.516;13.290;2023-02-28T08:50:21;6.10;46.80
73955;DHT22;62306;52.516;13.290;2023-02-28T08:52:47;6.20;47.10
73955;DHT22;62306;52.516;13.290;2023-02-28T08:55:15;6.20;45.80
73955;DHT22;62306;52.516;13.290;2023-02-28T08:57:43;6.30;46.00
73955;DHT22;62306;52.516;13.290;2023-02-28T09:00:11;6.20;45.90
73955;DHT22;62306;52.516;13.290;2023-02-28T09:02:39;6.20;46.90
73955;DHT22;62306;52.516;13.290;2023-02-28T09:05:06;6.10;44.90
73955;DHT22;62306;52.516;13.290;2023-02-28T09:07:34;5.90;44.90
73955;DHT22;62306;52.516;13.290;2023-02-28T09:10:01;5.50;45.60
73955;DHT22;62306;52.516;13.290;2023-02-28T09:12:32;5.40;46.90
73955;DHT22;62306;52.516;13.290;2023-02-28T09:15:01;5.60;46.20
73955;DHT22;62306;52.516;13.290;2023-02-28T09:17:28;5.70;46.70
73955;DHT22;62306;52.516;13.290;2023-02-28T09:19:55;5.60;47.00
73955;DHT22;62306;52.516;13.290;2023-02-28T09:22:22;5.60;46.40
73955;DHT22;62306;52.516;13.290;2023-02-28T09:24:49;5.70;45.50
73955;DHT22;62306;52.516;13.290;2023-02-28T09:27:16;5.60;46.70
73955;DHT22;62306;52.516;13.290;2023-02-28T09:29:43;5.90;45.80
73955;DHT22;62306;52.516;13.290;2023-02-28T09:32:11;6.10;45.70
73955;DHT22;62306;52.516;13.290;2023-02-28T09:34:38;6.20;44.10
73955;DHT22;62306;52.516;13.290;2023-02-28T09:37:05;6.00;44.20
73955;DHT22;62306;52.516;13.290;2023-02-28T09:39:32;5.80;45.00
73955;DHT22;62306;52.516;13.290;2023-02-28T09:41:58;6.00;45.80
73955;DHT22;62306;52.516;13.290;2023-02-28T09:44:30;6.20;45.60
73955;DHT22;62306;52.516;13.290;2023-02-28T09:47:01;6.30;45.80
73955;DHT22;62306;52.516;13.290;2023-02-28T09:49:37;6.10;44.80
73955;DHT22;62306;52.516;13.290;2023-02-28T09:52:09;6.30;45.00
73955;DHT22;62306;52.516;13.290;2023-02-28T09:54:37;6.50;45.30
73955;DHT22;62306;52.516;13.290;2023-02-28T09:57:07;6.50;45.10
73955;DHT22;62306;52.516;13.290;2023-02-28T09:59:54;6.10;45.10
73955;DHT22;62306;52.516;13.290;2023-02-28T10:05:40;6.40;45.40
73955;DHT22;62306;52.516;13.290;2023-02-28T10:08:13;6.40;44.00
73955;DHT22;62306;52.516;13.290;2023-02-28T10:10:43;6.30;43.90
73955;DHT22;62306;52.516;13.290;2023-02-28T10:13:19;5.90;44.30
73955;DHT22;62306;52.516;13.290;2023-02-28T10:15:51;6.00;45.20
73955;DHT22;62306;52.516;13.290;2023-02-28T10:18:22;6.00;44.10
73955;DHT22;62306;52.516;13.290;2023-02-28T10:20:52;5.80;44.70
73955;DHT22;62306;52.516;13.290;2023-02-28T10:23:24;5.80;45.30
73955;DHT22;62306;52.516;13.290;2023-02-28T10:25:55;5.90;44.90
73955;DHT22;62306;52.516;13.290;2023-02-28T10:28:25;6.10;45.10
73955;DHT22;62306;52.516;13.290;2023-02-28T10:30:53;6.30;44.40
73955;DHT22;62306;52.516;13.290;2023-02-28T10:33:23;6.40;43.80
73955;DHT22;62306;52.516;13.290;2023-02-28T10:35:52;6.40;44.00
73955;DHT22;62306;52.516;13.290;2023-02-28T10:38:21;6.40;44.30
73955;DHT22;62306;52.516;13.290;2023-02-28T10:40:49;6.50;43.40
73955;DHT22;62306;52.516;13.290;2023-02-28T10:43:21;6.40;43.70
73955;DHT22;62306;52.516;13.290;2023-02-28T10:45:56;6.40;44.40
73955;DHT22;62306;52.516;13.290;2023-02-28T10:48:33;6.10;44.70
73955;DHT22;62306;52.516;13.290;2023-02-28T10:51:02;5.70;44.90
73955;DHT22;62306;52.516;13.290;2023-02-28T10:53:38;5.80;45.40
73955;DHT22;62306;52.516;13.290;2023-02-28T10:56:15;5.70;45.90
73955;DHT22;62306;52.516;13.290;2023-02-28T10:58:52;5.90;47.00
73955;DHT22;62306;52.516;13.290;2023-02-28T11:01:22;6.20;46.60
73955;DHT22;62306;52.516;13.290;2023-02-28T11:03:53;6.20;46.00
73955;DHT22;62306;52.516;13.290;2023-02-28T11:06:23;6.40;46.60
73955;DHT22;62306;52.516;13.290;2023-02-28T11:08:52;6.40;44.50
73955;DHT22;62306;52.516;13.290;2023-02-28T11:11:21;6.30;45.30
73955;DHT22;62306;52.516;13.290;2023-02-28T11:13:52;6.50;45.50
73955;DHT22;62306;52.516;13.290;2023-02-28T11:16:20;6.50;44.60
73955;DHT22;62306;52.516;13.290;2023-02-28T11:18:49;6.50;44.50
73955;DHT22;62306;52.516;13.290;2023-02-28T11:21:22;6.50;44.50
73955;DHT22;62306;52.516;13.290;2023-02-28T11:23:52;6.60;44.20
73955;DHT22;62306;52.516;13.290;2023-02-28T11:26:38;6.70;43.40
73955;DHT22;62306;52.516;13.290;2023-02-28T11:29:17;6.70;43.50
73955;DHT22;62306;52.516;13.290;2023-02-28T11:32:02;6.80;43.10
73955;DHT22;62306;52.516;13.290;2023-02-28T11:34:28;6.60;43.80
73955;DHT22;62306;52.516;13.290;2023-02-28T11:36:58;6.80;43.50
73955;DHT22;62306;52.516;13.290;2023-02-28T11:39:26;6.90;43.10
73955;DHT22;62306;52.516;13.290;2023-02-28T11:42:09;6.90;43.10
73955;DHT22;62306;52.516;13.290;2023-02-28T11:44:52;6.80;42.80
73955;DHT22;62306;52.516;13.290;2023-02-28T11:47:32;6.70;43.70
73955;DHT22;62306;52.516;13.290;2023-02-28T11:50:12;6.70;43.40
73955;DHT22;62306;52.516;13.290;2023-02-28T11:52:50;6.70;43.60
73955;DHT22;62306;52.516;13.290;2023-02-28T11:55:23;6.70;43.70
73955;DHT22;62306;52.516;13.290;2023-02-28T11:58:05;6.90;43.50
73955;DHT22;62306;52.516;13.290;2023-02-28T12:00:49;7.00;43.90
73955;DHT22;62306;52.516;13.290;2023-02-28T12:03:29;7.20;42.10
73955;DHT22;62306;52.516;13.290;2023-02-28T12:06:08;7.00;43.00
73955;DHT22;62306;52.516;13.290;2023-02-28T12:08:49;6.60;43.60
73955;DHT22;62306;52.516;13.290;2023-02-28T12:11:29;6.30;44.60
73955;DHT22;62306;52.516;13.290;2023-02-28T12:16:57;7.00;43.80
73955;DHT22;62306;52.516;13.290;2023-02-28T12:19:31;6.70;43.20
73955;DHT22;62306;52.516;13.290;2023-02-28T12:22:16;6.40;44.20
73955;DHT22;62306;52.516;13.290;2023-02-28T12:24:59;6.70;44.60
73955;DHT22;62306;52.516;13.290;2023-02-28T12:27:34;6.90;44.10
73955;DHT22;62306;52.516;13.290;2023-02-28T12:30:05;7.00;43.20
73955;DHT22;62306;52.516;13.290;2023-02-28T12:32:38;7.20;43.50
73955;DHT22;62306;52.516;13.290;2023-02-28T12:35:12;7.00;42.80
73955;DHT22;62306;52.516;13.290;2023-02-28T12:37:43;6.80;44.00
73955;DHT22;62306;52.516;13.290;2023-02-28T12:40:17;6.90;44.30
73955;DHT22;62306;52.516;13.290;2023-02-28T12:42:45;7.20;44.80
73955;DHT22;62306;52.516;13.290;2023-02-28T12:45:18;7.40;43.40
73955;DHT22;62306;52.516;13.290;2023-02-28T12:47:48;7.60;43.60
73955;DHT22;62306;52.516;13.290;2023-02-28T12:50:16;7.80;43.60
73955;DHT22;62306;52.516;13.290;2023-02-28T12:52:50;7.60;42.90
73955;DHT22;62306;52.516;13.290;2023-02-28T12:55:25;7.60;43.00
73955;DHT22;62306;52.516;13.290;2023-02-28T12:58:01;7.70;43.00
73955;DHT22;62306;52.516;13.290;2023-02-28T13:00:34;7.90;42.20
73955;DHT22;62306;52.516;13.290;2023-02-28T13:06:10;7.70;41.70
73955;DHT22;62306;52.516;13.290;2023-02-28T13:09:02;7.10;43.00
73955;DHT22;62306;52.516;13.290;2023-02-28T13:11:34;7.10;44.80
73955;DHT22;62306;52.516;13.290;2023-02-28T13:14:06;7.20;44.60
73955;DHT22;62306;52.516;13.290;2023-02-28T13:16:51;7.50;44.00
73955;DHT22;62306;52.516;13.290;2023-02-28T13:19:20;7.80;42.40
73955;DHT22;62306;52.516;13.290;2023-02-28T13:21:49;7.80;42.00
73955;DHT22;62306;52.516;13.290;2023-02-28T13:24:39;7.30;43.70
73955;DHT22;62306;52.516;13.290;2023-02-28T13:27:36;7.30;44.70
73955;DHT22;62306;52.516;13.290;2023-02-28T13:33:22;7.30;45.00
73955;DHT22;62306;52.516;13.290;2023-02-28T13:36:07;7.60;42.30
73955;DHT22;62306;52.516;13.290;2023-02-28T13:38:37;7.50;43.10
73955;DHT22;62306;52.516;13.290;2023-02-28T13:41:42;7.40;41.70
73955;DHT22;62306;52.516;13.290;2023-02-28T13:44:12;7.20;42.90
73955;DHT22;62306;52.516;13.290;2023-02-28T13:49:44;7.60;42.30
73955;DHT22;62306;52.516;13.290;2023-02-28T13:52:16;7.70;41.60
73955;DHT22;62306;52.516;13.290;2023-02-28T13:57:47;7.60;42.30
73955;DHT22;62306;52.516;13.290;2023-02-28T14:00:35;7.60;41.40
73955;DHT22;62306;52.516;13.290;2023-02-28T14:03:28;7.60;42.40
73955;DHT22;62306;52.516;13.290;2023-02-28T14:06:22;7.50;42.60
73955;DHT22;62306;52.516;13.290;2023-02-28T14:08:55;7.50;41.90
73955;DHT22;62306;52.516;13.290;2023-02-28T14:11:27;7.50;42.20
73955;DHT22;62306;52.516;13.290;2023-02-28T14:13:54;7.40;41.20
73955;DHT22;62306;52.516;13.290;2023-02-28T14:16:24;7.10;42.50
73955;DHT22;62306;52.516;13.290;2023-02-28T14:18:57;7.10;41.80
73955;DHT22;62306;52.516;13.290;2023-02-28T14:21:27;7.20;42.50
73955;DHT22;62306;52.516;13.290;2023-02-28T14:24:30;7.10;41.90
73955;DHT22;62306;52.516;13.290;2023-02-28T14:27:26;6.80;43.10
73955;DHT22;62306;52.516;13.290;2023-02-28T14:33:18;6.80;44.50
73955;DHT22;62306;52.516;13.290;2023-02-28T14:36:01;6.70;45.40
73955;DHT22;62306;52.516;13.290;2023-02-28T14:38:33;6.60;45.80
73955;DHT22;62306;52.516;13.290;2023-02-28T14:41:04;6.60;46.00
73955;DHT22;62306;52.516;13.290;2023-02-28T14:43:33;6.70;45.50
73955;DHT22;62306;52.516;13.290;2023-02-28T14:46:01;6.80;44.90
73955;DHT22;62306;52.516;13.290;2023-02-28T14:48:30;6.90;45.40
73955;DHT22;62306;52.516;13.290;2023-02-28T14:50:59;6.90;45.20
73955;DHT22;62306;52.516;13.290;2023-02-28T14:53:28;6.90;44.90
73955;DHT22;62306;52.516;13.290;2023-02-28T14:55:56;6.90;45.30
73955;DHT22;62306;52.516;13.290;2023-02-28T14:58:25;6.90;45.00
73955;DHT22;62306;52.516;13.290;2023-02-28T15:00:54;6.90;44.80
73955;DHT22;62306;52.516;13.290;2023-02-28T15:03:22;6.70;45.10
73955;DHT22;62306;52.516;13.290;2023-02-28T15:05:56;6.70;45.70
73955;DHT22;62306;52.516;13.290;2023-02-28T15:08:24;6.70;45.90
73955;DHT22;62306;52.516;13.290;2023-02-28T15:10:56;6.60;45.60
73955;DHT22;62306;52.516;13.290;2023-02-28T15:13:26;6.60;45.40
73955;DHT22;62306;52.516;13.290;2023-02-28T15:15:59;6.70;46.00
73955;DHT22;62306;52.516;13.290;2023-02-28T15:18:32;6.60;46.10
73955;DHT22;62306;52.516;13.290;2023-02-28T15:21:03;6.50;45.60
73955;DHT22;62306;52.516;13.290;2023-02-28T15:23:32;6.50;45.50
73955;DHT22;62306;52.516;13.290;2023-02-28T15:26:01;6.50;45.80
73955;DHT22;62306;52.516;13.290;2023-02-28T15:28:29;6.40;46.20
73955;DHT22;62306;52.516;13.290;2023-02-28T15:30:58;6.40;47.00
73955;DHT22;62306;52.516;13.290;2023-02-28T15:33:27;6.20;46.20
73955;DHT22;62306;52.516;13.290;2023-02-28T15:36:11;6.20;46.80
73955;DHT22;62306;52.516;13.290;2023-02-28T15:38:40;6.20;46.70
73955;DHT22;62306;52.516;13.290;2023-02-28T15:41:22;6.10;46.60
73955;DHT22;62306;52.516;13.290;2023-02-28T15:44:22;6.10;47.10
73955;DHT22;62306;52.516;13.290;2023-02-28T15:46:59;6.10;47.70
73955;DHT22;62306;52.516;13.290;2023-02-28T15:49:27;6.00;47.50
73955;DHT22;62306;52.516;13.290;2023-02-28T15:51:57;6.00;47.90
73955;DHT22;62306;52.516;13.290;2023-02-28T15:54:29;5.90;48.20
73955;DHT22;62306;52.516;13.290;2023-02-28T15:56:59;5.80;48.10
73955;DHT22;62306;52.516;13.290;2023-02-28T15:59:30;5.80;48.20
73955;DHT22;62306;52.516;13.290;2023-02-28T16:02:14;5.60;48.00
73955;DHT22;62306;52.516;13.290;2023-02-28T16:04:58;5.60;48.70
73955;DHT22;62306;52.516;13.290;2023-02-28T16:07:26;5.60;48.50
73955;DHT22;62306;52.516;13.290;2023-02-28T16:09:53;5.50;48.80
73955;DHT22;62306;52.516;13.290;2023-02-28T16:12:21;5.40;49.40
73955;DHT22;62306;52.516;13.290;2023-02-28T16:14:54;5.40;48.90
73955;DHT22;62306;52.516;13.290;2023-02-28T16:17:22;5.30;49.50
73955;DHT22;62306;52.516;13.290;2023-02-28T16:19:49;5.30;49.50
73955;DHT22;62306;52.516;13.290;2023-02-28T16:22:16;5.40;48.90